sensor_id;sensor_type;location;lat;lon;timestamp;P1;durP1;ratioP1;P2;durP2;ratioP2
6739;SDS011;3407;49.882;10.920;2023-07-16T00:01:40;2.73;;;2.53;;
6739;SDS011;3407;49.882;10.920;2023-07-16T00:06:35;2.47;;;2.03;;
6739;SDS011;3407;49.882;10.920;2023-07-16T00:11:31;3.13;;;2.07;;
6739;SDS011;3407;49.882;10.920;2023-07-16T00:16:26;2.80;;;2.50;;
6739;SDS011;3407;49.882;10.920;2023-07-16T00:21:22;2.60;;;2.40;;
6739;SDS011;3407;49.882;10.920;2023-07-16T00:26:18;2.70;;;2.47;;
6739;SDS011;3407;49.882;10.920;2023-07-16T00:31:13;3.10;;;2.80;;
6739;SDS011;3407;49.882;10.920;2023-07-16T00:36:09;2.93;;;2.17;;
6739;SDS011;3407;49.882;10.920;2023-07-16T00:41:04;2.80;;;2.37;;
6739;SDS011;3407;49.882;10.920;2023-07-16T00:46:00;2.87;;;2.50;;
6739;SDS011;3407;49.882;10.920;2023-07-16T00:50:56;4.07;;;2.20;;
6739;SDS011;3407;49.882;10.920;2023-07-16T00:55:52;2.13;;;2.03;;
6739;SDS011;3407;49.882;10.920;2023-07-16T01:00:47;3.67;;;2.40;;
6739;SDS011;3407;49.882;10.920;2023-07-16T01:05:49;1.57;;;1.47;;
6739;SDS011;3407;49.882;10.920;2023-07-16T01:11:04;3.20;;;2.00;;
6739;SDS011;3407;49.882;10.920;2023-07-16T01:16:01;1.97;;;1.70;;
6739;SDS011;3407;49.882;10.920;2023-07-16T01:20:57;3.07;;;1.87;;
6739;SDS011;3407;49.882;10.920;2023-07-16T01:26:05;2.23;;;2.10;;
6739;SDS011;3407;49.882;10.920;2023-07-16T01:31:08;1.37;;;1.33;;
6739;SDS011;3407;49.882;10.920;2023-07-16T01:36:05;1.80;;;1.60;;
6739;SDS011;3407;49.882;10.920;2023-07-16T01:41:02;1.50;;;1.40;;
6739;SDS011;3407;49.882;10.920;2023-07-16T01:45:58;1.60;;;1.50;;
6739;SDS011;3407;49.882;10.920;2023-07-16T01:50:53;1.67;;;1.57;;
6739;SDS011;3407;49.882;10.920;2023-07-16T01:55:49;2.47;;;2.27;;
6739;SDS011;3407;49.882;10.920;2023-07-16T02:00:44;1.93;;;1.67;;
6739;SDS011;3407;49.882;10.920;2023-07-16T02:05:40;1.97;;;1.77;;
6739;SDS011;3407;49.882;10.920;2023-07-16T02:10:36;2.30;;;2.10;;
6739;SDS011;3407;49.882;10.920;2023-07-16T02:15:31;2.30;;;2.10;;
6739;SDS011;3407;49.882;10.920;2023-07-16T02:20:27;1.60;;;1.50;;
6739;SDS011;3407;49.882;10.920;2023-07-16T02:25:22;2.00;;;1.80;;
6739;SDS011;3407;49.882;10.920;2023-07-16T02:30:18;1.20;;;1.10;;
6739;SDS011;3407;49.882;10.920;2023-07-16T02:35:14;1.73;;;1.63;;
6739;SDS011;3407;49.882;10.920;2023-07-16T02:40:09;1.13;;;1.07;;
6739;SDS011;3407;49.882;10.920;2023-07-16T02:45:05;1.57;;;1.47;;
6739;SDS011;3407;49.882;10.920;2023-07-16T02:50:01;1.90;;;1.63;;
6739;SDS011;3407;49.882;10.920;2023-07-16T02:54:57;2.47;;;1.73;;
6739;SDS011;3407;49.882;10.920;2023-07-16T02:59:52;1.70;;;1.60;;
6739;SDS011;3407;49.882;10.920;2023-07-16T03:04:48;2.13;;;1.67;;
6739;SDS011;3407;49.882;10.920;2023-07-16T03:09:43;2.10;;;1.30;;
6739;SDS011;3407;49.882;10.920;2023-07-16T03:14:39;1.40;;;1.37;;
6739;SDS011;3407;49.882;10.920;2023-07-16T03:19:34;2.53;;;2.00;;
6739;SDS011;3407;49.882;10.920;2023-07-16T03:24:30;1.50;;;1.40;;
6739;SDS011;3407;49.882;10.920;2023-07-16T03:29:25;2.13;;;1.60;;
6739;SDS011;3407;49.882;10.920;2023-07-16T03:34:21;2.83;;;2.00;;
6739;SDS011;3407;49.882;10.920;2023-07-16T03:39:16;1.53;;;1.43;;
6739;SDS011;3407;49.882;10.920;2023-07-16T03:44:12;1.20;;;1.20;;
6739;SDS011;3407;49.882;10.920;2023-07-16T03:49:07;1.60;;;1.37;;
6739;SDS011;3407;49.882;10.920;2023-07-16T03:54:03;1.00;;;1.00;;
6739;SDS011;3407;49.882;10.920;2023-07-16T03:58:59;0.87;;;0.87;;
6739;SDS011;3407;49.882;10.920;2023-07-16T04:03:54;1.00;;;1.00;;
6739;SDS011;3407;49.882;10.920;2023-07-16T04:08:50;0.80;;;0.80;;
6739;SDS011;3407;49.882;10.920;2023-07-16T04:13:45;0.97;;;0.97;;
6739;SDS011;3407;49.882;10.920;2023-07-16T04:18:41;1.37;;;1.27;;
6739;SDS011;3407;49.882;10.920;2023-07-16T04:23:36;0.80;;;0.80;;
6739;SDS011;3407;49.882;10.920;2023-07-16T04:28:32;1.40;;;1.30;;
6739;SDS011;3407;49.882;10.920;2023-07-16T04:33:27;0.90;;;0.90;;
6739;SDS011;3407;49.882;10.920;2023-07-16T04:38:23;1.00;;;1.00;;
6739;SDS011;3407;49.882;10.920;2023-07-16T04:43:18;1.13;;;1.10;;
6739;SDS011;3407;49.882;10.920;2023-07-16T04:48:14;1.80;;;0.90;;
6739;SDS011;3407;49.882;10.920;2023-07-16T04:53:09;0.80;;;0.80;;
6739;SDS011;3407;49.882;10.920;2023-07-16T04:58:05;2.70;;;0.90;;
6739;SDS011;3407;49.882;10.920;2023-07-16T05:03:01;1.00;;;1.00;;
6739;SDS011;3407;49.882;10.920;2023-07-16T05:07:56;0.90;;;0.83;;
6739;SDS011;3407;49.882;10.920;2023-07-16T05:12:52;1.07;;;0.80;;
6739;SDS011;3407;49.882;10.920;2023-07-16T05:17:47;0.90;;;0.90;;
6739;SDS011;3407;49.882;10.920;2023-07-16T05:22:43;0.90;;;0.90;;
6739;SDS011;3407;49.882;10.920;2023-07-16T05:27:38;0.87;;;0.87;;
6739;SDS011;3407;49.882;10.920;2023-07-16T05:32:34;1.03;;;0.90;;
6739;SDS011;3407;49.882;10.920;2023-07-16T05:37:30;0.73;;;0.73;;
6739;SDS011;3407;49.882;10.920;2023-07-16T05:42:25;2.13;;;0.97;;
6739;SDS011;3407;49.882;10.920;2023-07-16T05:47:21;0.60;;;0.60;;
6739;SDS011;3407;49.882;10.920;2023-07-16T05:52:18;0.90;;;0.90;;
6739;SDS011;3407;49.882;10.920;2023-07-16T05:57:13;1.10;;;1.10;;
6739;SDS011;3407;49.882;10.920;2023-07-16T06:02:09;0.97;;;0.93;;
6739;SDS011;3407;49.882;10.920;2023-07-16T06:07:05;1.73;;;0.80;;
6739;SDS011;3407;49.882;10.920;2023-07-16T06:12:01;0.70;;;0.70;;
6739;SDS011;3407;49.882;10.920;2023-07-16T06:16:56;6.63;;;1.00;;
6739;SDS011;3407;49.882;10.920;2023-07-16T06:21:52;1.00;;;1.00;;
6739;SDS011;3407;49.882;10.920;2023-07-16T06:26:47;0.70;;;0.70;;
6739;SDS011;3407;49.882;10.920;2023-07-16T06:31:43;4.30;;;2.43;;
6739;SDS011;3407;49.882;10.920;2023-07-16T06:36:48;0.90;;;0.90;;
6739;SDS011;3407;49.882;10.920;2023-07-16T06:41:44;0.93;;;0.70;;
6739;SDS011;3407;49.882;10.920;2023-07-16T06:46:40;1.23;;;1.13;;
6739;SDS011;3407;49.882;10.920;2023-07-16T06:51:35;1.53;;;0.97;;
6739;SDS011;3407;49.882;10.920;2023-07-16T06:56:31;1.20;;;1.20;;
6739;SDS011;3407;49.882;10.920;2023-07-16T07:01:26;2.47;;;1.00;;
6739;SDS011;3407;49.882;10.920;2023-07-16T07:06:23;0.83;;;0.83;;
6739;SDS011;3407;49.882;10.920;2023-07-16T07:11:18;1.40;;;0.80;;
6739;SDS011;3407;49.882;10.920;2023-07-16T07:16:14;2.20;;;0.93;;
6739;SDS011;3407;49.882;10.920;2023-07-16T07:21:09;3.40;;;1.03;;
6739;SDS011;3407;49.882;10.920;2023-07-16T07:26:05;1.50;;;0.80;;
6739;SDS011;3407;49.882;10.920;2023-07-16T07:31:01;1.33;;;1.23;;
6739;SDS011;3407;49.882;10.920;2023-07-16T07:35:57;1.20;;;1.10;;
6739;SDS011;3407;49.882;10.920;2023-07-16T07:40:52;0.77;;;0.73;;
6739;SDS011;3407;49.882;10.920;2023-07-16T07:45:48;0.70;;;0.70;;
6739;SDS011;3407;49.882;10.920;2023-07-16T07:50:43;5.00;;;1.13;;
6739;SDS011;3407;49.882;10.920;2023-07-16T07:55:41;1.50;;;1.13;;
6739;SDS011;3407;49.882;10.920;2023-07-16T08:00:37;3.53;;;1.20;;
6739;SDS011;3407;49.882;10.920;2023-07-16T08:05:33;0.97;;;0.93;;
6739;SDS011;3407;49.882;10.920;2023-07-16T08:10:29;2.40;;;1.07;;
6739;SDS011;3407;49.882;10.920;2023-07-16T08:15:24;1.23;;;0.77;;
6739;SDS011;3407;49.882;10.920;2023-07-16T08:20:20;0.90;;;0.90;;
6739;SDS011;3407;49.882;10.920;2023-07-16T08:25:15;1.80;;;0.90;;
6739;SDS011;3407;49.882;10.920;2023-07-16T08:30:11;0.80;;;0.80;;
6739;SDS011;3407;49.882;10.920;2023-07-16T08:35:06;1.60;;;0.93;;
6739;SDS011;3407;49.882;10.920;2023-07-16T08:40:07;1.27;;;0.80;;
6739;SDS011;3407;49.882;10.920;2023-07-16T08:45:09;2.73;;;1.00;;
6739;SDS011;3407;49.882;10.920;2023-07-16T08:50:06;1.10;;;0.83;;
6739;SDS011;3407;49.882;10.920;2023-07-16T08:55:02;1.83;;;1.00;;
6739;SDS011;3407;49.882;10.920;2023-07-16T08:59:57;1.10;;;1.00;;
6739;SDS011;3407;49.882;10.920;2023-07-16T09:04:53;1.00;;;0.90;;
6739;SDS011;3407;49.882;10.920;2023-07-16T09:09:56;1.27;;;0.90;;
6739;SDS011;3407;49.882;10.920;2023-07-16T09:14:55;1.07;;;0.77;;
6739;SDS011;3407;49.882;10.920;2023-07-16T09:19:51;1.77;;;1.00;;
6739;SDS011;3407;49.882;10.920;2023-07-16T09:24:47;0.97;;;0.93;;
6739;SDS011;3407;49.882;10.920;2023-07-16T09:29:43;0.60;;;0.60;;
6739;SDS011;3407;49.882;10.920;2023-07-16T09:34:38;1.13;;;1.00;;
6739;SDS011;3407;49.882;10.920;2023-07-16T09:39:34;1.10;;;1.00;;
6739;SDS011;3407;49.882;10.920;2023-07-16T09:44:32;1.50;;;0.90;;
6739;SDS011;3407;49.882;10.920;2023-07-16T09:49:28;0.63;;;0.63;;
6739;SDS011;3407;49.882;10.920;2023-07-16T09:54:25;0.82;;;0.82;;
6739;SDS011;3407;49.882;10.920;2023-07-16T09:59:23;2.47;;;0.93;;
6739;SDS011;3407;49.882;10.920;2023-07-16T10:04:21;0.97;;;0.97;;
6739;SDS011;3407;49.882;10.920;2023-07-16T10:09:37;1.98;;;1.00;;
6739;SDS011;3407;49.882;10.920;2023-07-16T10:14:41;2.40;;;1.00;;
6739;SDS011;3407;49.882;10.920;2023-07-16T10:19:50;0.80;;;0.80;;
6739;SDS011;3407;49.882;10.920;2023-07-16T10:24:53;1.08;;;0.80;;
6739;SDS011;3407;49.882;10.920;2023-07-16T10:29:49;2.08;;;1.02;;
6739;SDS011;3407;49.882;10.920;2023-07-16T10:34:45;2.45;;;1.25;;
6739;SDS011;3407;49.882;10.920;2023-07-16T10:39:47;2.47;;;0.70;;
6739;SDS011;3407;49.882;10.920;2023-07-16T10:44:51;1.00;;;0.90;;
6739;SDS011;3407;49.882;10.920;2023-07-16T10:49:48;2.67;;;0.98;;
6739;SDS011;3407;49.882;10.920;2023-07-16T10:54:44;2.72;;;0.65;;
6739;SDS011;3407;49.882;10.920;2023-07-16T10:59:40;0.80;;;0.80;;
6739;SDS011;3407;49.882;10.920;2023-07-16T11:04:36;0.98;;;0.88;;
6739;SDS011;3407;49.882;10.920;2023-07-16T11:09:31;0.95;;;0.82;;
6739;SDS011;3407;49.882;10.920;2023-07-16T11:14:27;0.93;;;0.73;;
6739;SDS011;3407;49.882;10.920;2023-07-16T11:19:23;0.80;;;0.80;;
6739;SDS011;3407;49.882;10.920;2023-07-16T11:24:19;1.02;;;0.90;;
6739;SDS011;3407;49.882;10.920;2023-07-16T11:29:16;1.33;;;0.95;;
6739;SDS011;3407;49.882;10.920;2023-07-16T11:34:14;1.38;;;1.25;;
6739;SDS011;3407;49.882;10.920;2023-07-16T11:39:10;1.67;;;0.98;;
6739;SDS011;3407;49.882;10.920;2023-07-16T11:44:07;0.70;;;0.70;;
6739;SDS011;3407;49.882;10.920;2023-07-16T11:49:03;1.75;;;1.00;;
6739;SDS011;3407;49.882;10.920;2023-07-16T11:53:59;1.67;;;0.90;;
6739;SDS011;3407;49.882;10.920;2023-07-16T11:58:54;1.20;;;1.10;;
6739;SDS011;3407;49.882;10.920;2023-07-16T12:03:50;1.90;;;1.75;;
6739;SDS011;3407;49.882;10.920;2023-07-16T12:08:45;1.00;;;0.80;;
6739;SDS011;3407;49.882;10.920;2023-07-16T12:13:41;1.10;;;0.73;;
6739;SDS011;3407;49.882;10.920;2023-07-16T12:18:36;1.38;;;1.10;;
6739;SDS011;3407;49.882;10.920;2023-07-16T12:23:32;1.10;;;1.02;;
6739;SDS011;3407;49.882;10.920;2023-07-16T12:28:27;0.82;;;0.77;;
6739;SDS011;3407;49.882;10.920;2023-07-16T12:33:23;2.75;;;1.02;;
6739;SDS011;3407;49.882;10.920;2023-07-16T12:38:18;1.42;;;1.00;;
6739;SDS011;3407;49.882;10.920;2023-07-16T12:43:14;0.85;;;0.60;;
6739;SDS011;3407;49.882;10.920;2023-07-16T12:48:09;0.80;;;0.80;;
6739;SDS011;3407;49.882;10.920;2023-07-16T12:53:05;1.08;;;0.93;;
6739;SDS011;3407;49.882;10.920;2023-07-16T12:58:00;0.80;;;0.80;;
6739;SDS011;3407;49.882;10.920;2023-07-16T13:02:56;0.70;;;0.70;;
6739;SDS011;3407;49.882;10.920;2023-07-16T13:07:51;0.73;;;0.73;;
6739;SDS011;3407;49.882;10.920;2023-07-16T13:12:47;1.25;;;1.00;;
6739;SDS011;3407;49.882;10.920;2023-07-16T13:17:42;0.90;;;0.90;;
6739;SDS011;3407;49.882;10.920;2023-07-16T13:22:38;0.70;;;0.70;;
6739;SDS011;3407;49.882;10.920;2023-07-16T13:27:34;1.30;;;1.05;;
6739;SDS011;3407;49.882;10.920;2023-07-16T13:32:29;1.17;;;0.80;;
6739;SDS011;3407;49.882;10.920;2023-07-16T13:37:25;1.17;;;0.70;;
6739;SDS011;3407;49.882;10.920;2023-07-16T13:42:20;1.23;;;0.82;;
6739;SDS011;3407;49.882;10.920;2023-07-16T13:47:16;1.15;;;1.05;;
6739;SDS011;3407;49.882;10.920;2023-07-16T13:52:12;2.67;;;1.83;;
6739;SDS011;3407;49.882;10.920;2023-07-16T13:57:08;3.13;;;1.17;;
6739;SDS011;3407;49.882;10.920;2023-07-16T14:02:04;1.23;;;0.60;;
6739;SDS011;3407;49.882;10.920;2023-07-16T14:07:00;2.03;;;1.53;;
6739;SDS011;3407;49.882;10.920;2023-07-16T14:11:55;1.10;;;1.10;;
6739;SDS011;3407;49.882;10.920;2023-07-16T14:16:51;1.20;;;1.10;;
6739;SDS011;3407;49.882;10.920;2023-07-16T14:21:47;2.17;;;1.97;;
6739;SDS011;3407;49.882;10.920;2023-07-16T14:26:42;1.67;;;1.27;;
6739;SDS011;3407;49.882;10.920;2023-07-16T14:31:38;1.60;;;1.40;;
6739;SDS011;3407;49.882;10.920;2023-07-16T14:36:33;4.50;;;2.37;;
6739;SDS011;3407;49.882;10.920;2023-07-16T14:41:29;2.03;;;1.80;;
6739;SDS011;3407;49.882;10.920;2023-07-16T14:46:24;2.13;;;1.50;;
6739;SDS011;3407;49.882;10.920;2023-07-16T14:51:20;1.27;;;1.17;;
6739;SDS011;3407;49.882;10.920;2023-07-16T14:56:15;7.47;;;3.57;;
6739;SDS011;3407;49.882;10.920;2023-07-16T15:01:11;4.50;;;1.50;;
6739;SDS011;3407;49.882;10.920;2023-07-16T15:06:07;1.37;;;1.27;;
6739;SDS011;3407;49.882;10.920;2023-07-16T15:11:02;1.80;;;1.50;;
6739;SDS011;3407;49.882;10.920;2023-07-16T15:15:59;1.40;;;1.17;;
6739;SDS011;3407;49.882;10.920;2023-07-16T15:21:00;1.20;;;1.10;;
6739;SDS011;3407;49.882;10.920;2023-07-16T15:26:00;2.60;;;2.20;;
6739;SDS011;3407;49.882;10.920;2023-07-16T15:30:57;0.83;;;0.83;;
6739;SDS011;3407;49.882;10.920;2023-07-16T15:35:53;1.70;;;1.20;;
6739;SDS011;3407;49.882;10.920;2023-07-16T15:40:48;1.17;;;0.90;;
6739;SDS011;3407;49.882;10.920;2023-07-16T15:45:44;2.03;;;1.83;;
6739;SDS011;3407;49.882;10.920;2023-07-16T15:50:40;6.67;;;4.03;;
6739;SDS011;3407;49.882;10.920;2023-07-16T15:55:35;3.00;;;1.40;;
6739;SDS011;3407;49.882;10.920;2023-07-16T16:00:31;1.13;;;1.00;;
6739;SDS011;3407;49.882;10.920;2023-07-16T16:05:27;1.03;;;0.93;;
6739;SDS011;3407;49.882;10.920;2023-07-16T16:10:24;2.43;;;1.47;;
6739;SDS011;3407;49.882;10.920;2023-07-16T16:15:20;2.23;;;1.23;;
6739;SDS011;3407;49.882;10.920;2023-07-16T16:20:15;1.80;;;1.10;;
6739;SDS011;3407;49.882;10.920;2023-07-16T16:25:11;3.03;;;1.30;;
6739;SDS011;3407;49.882;10.920;2023-07-16T16:30:06;1.30;;;1.00;;
6739;SDS011;3407;49.882;10.920;2023-07-16T16:35:03;1.00;;;0.90;;
6739;SDS011;3407;49.882;10.920;2023-07-16T16:39:59;1.23;;;1.13;;
6739;SDS011;3407;49.882;10.920;2023-07-16T16:44:55;1.40;;;1.27;;
6739;SDS011;3407;49.882;10.920;2023-07-16T16:49:51;1.20;;;1.10;;
6739;SDS011;3407;49.882;10.920;2023-07-16T16:54:46;1.17;;;1.07;;
6739;SDS011;3407;49.882;10.920;2023-07-16T16:59:42;1.00;;;0.90;;
6739;SDS011;3407;49.882;10.920;2023-07-16T17:04:38;1.40;;;1.20;;
6739;SDS011;3407;49.882;10.920;2023-07-16T17:09:37;1.50;;;1.30;;
6739;SDS011;3407;49.882;10.920;2023-07-16T17:14:33;1.17;;;1.07;;
6739;SDS011;3407;49.882;10.920;2023-07-16T17:19:28;1.00;;;1.00;;
6739;SDS011;3407;49.882;10.920;2023-07-16T17:24:24;1.50;;;1.27;;
6739;SDS011;3407;49.882;10.920;2023-07-16T17:29:19;1.20;;;1.10;;
6739;SDS011;3407;49.882;10.920;2023-07-16T17:34:15;2.10;;;1.83;;
6739;SDS011;3407;49.882;10.920;2023-07-16T17:39:11;2.40;;;1.40;;
6739;SDS011;3407;49.882;10.920;2023-07-16T17:44:06;2.43;;;2.03;;
6739;SDS011;3407;49.882;10.920;2023-07-16T17:49:02;1.00;;;1.00;;
6739;SDS011;3407;49.882;10.920;2023-07-16T17:53:59;1.90;;;1.30;;
6739;SDS011;3407;49.882;10.920;2023-07-16T17:58:55;5.40;;;2.07;;
6739;SDS011;3407;49.882;10.920;2023-07-16T18:03:50;1.30;;;1.20;;
6739;SDS011;3407;49.882;10.920;2023-07-16T18:08:46;2.77;;;2.30;;
6739;SDS011;3407;49.882;10.920;2023-07-16T18:13:41;1.97;;;1.47;;
6739;SDS011;3407;49.882;10.920;2023-07-16T18:18:37;2.80;;;1.20;;
6739;SDS011;3407;49.882;10.920;2023-07-16T18:23:32;2.33;;;1.23;;
6739;SDS011;3407;49.882;10.920;2023-07-16T18:28:28;1.37;;;1.13;;
6739;SDS011;3407;49.882;10.920;2023-07-16T18:33:23;1.50;;;1.40;;
6739;SDS011;3407;49.882;10.920;2023-07-16T18:38:19;2.97;;;1.40;;
6739;SDS011;3407;49.882;10.920;2023-07-16T18:43:15;2.10;;;1.30;;
6739;SDS011;3407;49.882;10.920;2023-07-16T18:48:11;1.53;;;1.43;;
6739;SDS011;3407;49.882;10.920;2023-07-16T18:53:07;1.73;;;1.33;;
6739;SDS011;3407;49.882;10.920;2023-07-16T18:58:03;1.23;;;1.13;;
6739;SDS011;3407;49.882;10.920;2023-07-16T19:02:58;3.53;;;1.40;;
6739;SDS011;3407;49.882;10.920;2023-07-16T19:07:54;1.40;;;1.30;;
6739;SDS011;3407;49.882;10.920;2023-07-16T19:12:50;1.30;;;1.20;;
6739;SDS011;3407;49.882;10.920;2023-07-16T19:17:45;1.37;;;1.27;;
6739;SDS011;3407;49.882;10.920;2023-07-16T19:22:41;1.27;;;1.10;;
6739;SDS011;3407;49.882;10.920;2023-07-16T19:27:36;3.83;;;1.20;;
6739;SDS011;3407;49.882;10.920;2023-07-16T19:32:32;1.20;;;1.07;;
6739;SDS011;3407;49.882;10.920;2023-07-16T19:37:27;2.10;;;1.20;;
6739;SDS011;3407;49.882;10.920;2023-07-16T19:42:26;3.03;;;1.40;;
6739;SDS011;3407;49.882;10.920;2023-07-16T19:47:22;1.63;;;1.53;;
6739;SDS011;3407;49.882;10.920;2023-07-16T19:52:18;1.90;;;1.17;;
6739;SDS011;3407;49.882;10.920;2023-07-16T19:57:14;1.27;;;1.10;;
6739;SDS011;3407;49.882;10.920;2023-07-16T20:02:09;1.37;;;1.27;;
6739;SDS011;3407;49.882;10.920;2023-07-16T20:07:05;2.13;;;1.80;;
6739;SDS011;3407;49.882;10.920;2023-07-16T20:12:00;1.30;;;1.17;;
6739;SDS011;3407;49.882;10.920;2023-07-16T20:16:57;2.63;;;1.00;;
6739;SDS011;3407;49.882;10.920;2023-07-16T20:21:52;3.67;;;1.83;;
6739;SDS011;3407;49.882;10.920;2023-07-16T20:26:49;1.00;;;1.00;;
6739;SDS011;3407;49.882;10.920;2023-07-16T20:31:44;3.23;;;1.50;;
6739;SDS011;3407;49.882;10.920;2023-07-16T20:36:40;1.40;;;1.30;;
6739;SDS011;3407;49.882;10.920;2023-07-16T20:41:37;1.20;;;1.10;;
6739;SDS011;3407;49.882;10.920;2023-07-16T20:46:33;1.40;;;1.30;;
6739;SDS011;3407;49.882;10.920;2023-07-16T20:51:28;3.30;;;1.43;;
6739;SDS011;3407;49.882;10.920;2023-07-16T20:56:24;1.00;;;0.97;;
6739;SDS011;3407;49.882;10.920;2023-07-16T21:01:20;2.37;;;1.27;;
6739;SDS011;3407;49.882;10.920;2023-07-16T21:06:15;1.97;;;1.60;;
6739;SDS011;3407;49.882;10.920;2023-07-16T21:11:11;1.10;;;1.00;;
6739;SDS011;3407;49.882;10.920;2023-07-16T21:16:06;1.30;;;1.20;;
6739;SDS011;3407;49.882;10.920;2023-07-16T21:21:02;1.63;;;1.37;;
6739;SDS011;3407;49.882;10.920;2023-07-16T21:25:58;1.37;;;1.13;;
6739;SDS011;3407;49.882;10.920;2023-07-16T21:30:53;1.43;;;1.23;;
6739;SDS011;3407;49.882;10.920;2023-07-16T21:35:49;1.30;;;1.20;;
6739;SDS011;3407;49.882;10.920;2023-07-16T21:40:44;1.13;;;1.13;;
6739;SDS011;3407;49.882;10.920;2023-07-16T21:45:40;1.70;;;1.43;;
6739;SDS011;3407;49.882;10.920;2023-07-16T21:50:35;2.50;;;1.50;;
6739;SDS011;3407;49.882;10.920;2023-07-16T21:55:31;1.70;;;1.50;;
6739;SDS011;3407;49.882;10.920;2023-07-16T22:00:26;1.40;;;1.30;;
6739;SDS011;3407;49.882;10.920;2023-07-16T22:05:22;3.47;;;2.43;;
6739;SDS011;3407;49.882;10.920;2023-07-16T22:10:18;2.50;;;1.90;;
6739;SDS011;3407;49.882;10.920;2023-07-16T22:15:13;1.80;;;1.70;;
6739;SDS011;3407;49.882;10.920;2023-07-16T22:20:09;2.27;;;1.60;;
6739;SDS011;3407;49.882;10.920;2023-07-16T22:25:06;3.67;;;2.50;;
6739;SDS011;3407;49.882;10.920;2023-07-16T22:30:02;6.00;;;4.07;;
6739;SDS011;3407;49.882;10.920;2023-07-16T22:34:59;4.10;;;3.67;;
6739;SDS011;3407;49.882;10.920;2023-07-16T22:39:54;3.33;;;2.30;;
6739;SDS011;3407;49.882;10.920;2023-07-16T22:44:50;3.50;;;2.60;;
6739;SDS011;3407;49.882;10.920;2023-07-16T22:49:46;4.27;;;3.27;;
6739;SDS011;3407;49.882;10.920;2023-07-16T22:54:41;6.47;;;2.97;;
6739;SDS011;3407;49.882;10.920;2023-07-16T22:59:37;6.87;;;3.90;;
6739;SDS011;3407;49.882;10.920;2023-07-16T23:04:32;4.73;;;2.70;;
6739;SDS011;3407;49.882;10.920;2023-07-16T23:09:28;1.73;;;1.60;;
6739;SDS011;3407;49.882;10.920;2023-07-16T23:14:23;3.03;;;2.77;;
6739;SDS011;3407;49.882;10.920;2023-07-16T23:19:19;3.37;;;1.93;;
6739;SDS011;3407;49.882;10.920;2023-07-16T23:24:14;3.47;;;2.67;;
6739;SDS011;3407;49.882;10.920;2023-07-16T23:29:10;2.60;;;2.00;;
6739;SDS011;3407;49.882;10.920;2023-07-16T23:34:05;3.20;;;2.20;;
6739;SDS011;3407;49.882;10.920;2023-07-16T23:39:01;7.77;;;1.87;;
6739;SDS011;3407;49.882;10.920;2023-07-16T23:43:59;1.57;;;1.47;;
6739;SDS011;3407;49.882;10.920;2023-07-16T23:48:55;1.93;;;1.77;;
6739;SDS011;3407;49.882;10.920;2023-07-16T23:53:50;2.03;;;1.63;;
6739;SDS011;3407;49.882;10.920;2023-07-16T23:58:47;1.43;;;1.33;;
